Time;durP1;ratioP1;P1;durP2;ratioP2;P2;SDS_P1;SDS_P2;PMS_P1;PMS_P2;Temp;Humidity;BMP_temperature;BMP_pressure;BME280_temperature;BME280_humidity;BME280_pressure;Samples;Min_cycle;Max_cycle;Signal;HPM_P1;HPM_P2
2022/10/24 00:01:21;;;;;;;;;0.50;0.50;;;;;18.22;100.00;99864.75;5115361;27;45536;-84
2022/10/24 00:03:48;;;;;;;;;1.00;1.00;;;;;18.18;100.00;99872.03;5114755;27;44804;-84
2022/10/24 00:06:14;;;;;;;;;1.00;1.00;;;;;18.20;100.00;99872.00;5115099;27;45562;-84
2022/10/24 00:08:41;;;;;;;;;2.25;0.50;;;;;18.17;100.00;99880.16;5114888;27;45460;-83
2022/10/24 00:11:13;;;;;;;;;0.75;0.75;;;;;18.13;100.00;99868.59;5095546;27;45319;-83
2022/10/24 00:13:40;;;;;;;;;1.00;1.00;;;;;18.14;100.00;99877.56;5112184;27;45575;-83
2022/10/24 00:16:06;;;;;;;;;3.00;0.00;;;;;18.12;100.00;99874.91;5094960;27;45030;-84
2022/10/24 00:18:32;;;;;;;;;1.00;1.00;;;;;18.10;100.00;99868.69;5111621;27;47340;-85
2022/10/24 00:20:57;;;;;;;;;0.50;0.00;;;;;18.05;100.00;99864.38;5114205;27;45161;-85
2022/10/24 00:23:23;;;;;;;;;1.00;1.00;;;;;18.05;100.00;99870.63;5113531;27;45504;-85
2022/10/24 00:25:51;;;;;;;;;2.50;1.00;;;;;18.04;100.00;99866.19;5112700;27;45408;-85
2022/10/24 00:28:17;;;;;;;;;1.00;1.00;;;;;18.01;100.00;99860.91;5111937;27;46049;-85
2022/10/24 00:30:43;;;;;;;;;2.50;0.75;;;;;18.01;100.00;99865.41;5112955;27;45444;-85
2022/10/24 00:33:09;;;;;;;;;1.25;1.25;;;;;17.93;100.00;99874.56;5111958;27;45324;-84
2022/10/24 00:35:35;;;;;;;;;4.00;1.00;;;;;17.93;100.00;99866.50;5094615;27;44944;-85
2022/10/24 00:38:00;;;;;;;;;1.50;0.50;;;;;17.91;100.00;99871.06;5095083;27;47264;-85
2022/10/24 00:40:26;;;;;;;;;1.50;1.00;;;;;17.88;100.00;99872.97;5095634;27;45355;-84
2022/10/24 00:42:51;;;;;;;;;1.00;1.00;;;;;17.86;100.00;99875.69;5113746;27;45415;-84
2022/10/24 00:45:44;;;;;;;;;1.00;1.00;;;;;17.79;100.00;99866.91;5094573;27;44809;-85
2022/10/24 00:48:38;;;;;;;;;0.75;0.75;;;;;17.84;100.00;99884.75;5093447;27;47005;-85
2022/10/24 00:51:10;;;;;;;;;0.00;0.00;;;;;17.78;100.00;99891.16;5087619;28;44841;-85
2022/10/24 00:53:43;;;;;;;;;0.00;0.00;;;;;17.74;100.00;99890.34;5091748;27;45328;-85
2022/10/24 00:56:15;;;;;;;;;0.25;0.25;;;;;17.78;100.00;99902.78;5068117;28;45354;-86
2022/10/24 00:58:42;;;;;;;;;2.00;1.00;;;;;17.72;100.00;99892.22;5066563;28;45705;-85
2022/10/24 01:01:09;;;;;;;;;3.00;1.00;;;;;17.75;100.00;99901.97;5085951;28;45338;-85
2022/10/24 01:03:34;;;;;;;;;1.00;1.00;;;;;17.71;100.00;99898.50;5086241;27;44879;-85
2022/10/24 01:06:50;;;;;;;;;1.25;0.25;;;;;17.67;100.00;99912.94;5066656;28;45535;-85
2022/10/24 01:09:36;;;;;;;;;0.25;0.25;;;;;17.61;100.00;99913.13;5086920;27;46825;-85
2022/10/24 01:12:14;;;;;;;;;0.00;0.00;;;;;17.53;100.00;99912.47;5067301;28;45440;-85
2022/10/24 01:15:29;;;;;;;;;1.00;1.00;;;;;17.51;100.00;99930.44;5051668;28;45375;-85
2022/10/24 01:18:10;;;;;;;;;1.75;0.00;;;;;17.48;100.00;99927.84;5058536;28;45446;-85
2022/10/24 01:20:38;;;;;;;;;2.25;0.75;;;;;17.53;100.00;99942.03;5050001;28;47070;-85
2022/10/24 01:23:22;;;;;;;;;2.00;0.00;;;;;17.53;100.00;99945.63;5065727;28;45548;-85
2022/10/24 01:26:21;;;;;;;;;2.00;0.75;;;;;17.54;100.00;99942.00;5067845;28;45894;-85
2022/10/24 01:28:59;;;;;;;;;3.50;0.00;;;;;17.53;100.00;99944.72;5050974;28;45455;-85
2022/10/24 01:31:32;;;;;;;;;2.50;1.25;;;;;17.47;100.00;99934.13;5051225;28;46985;-85
2022/10/24 01:34:06;;;;;;;;;0.25;0.25;;;;;17.39;100.00;99932.56;5052687;28;45593;-85
2022/10/24 01:36:49;;;;;;;;;1.25;1.00;;;;;17.40;100.00;99942.38;5051800;28;45535;-84
2022/10/24 01:39:19;;;;;;;;;1.00;1.00;;;;;17.37;100.00;99946.94;5067553;28;45426;-85
2022/10/24 01:41:47;;;;;;;;;3.00;1.50;;;;;17.31;100.00;99928.28;5069383;28;45193;-85
2022/10/24 01:44:40;;;;;;;;;0.75;0.75;;;;;17.35;100.00;99947.00;5069583;28;45324;-84
2022/10/24 01:47:23;;;;;;;;;1.25;1.25;;;;;17.35;100.00;99951.47;5046624;28;45319;-84
2022/10/24 01:49:57;;;;;;;;;0.50;0.50;;;;;17.33;100.00;99927.34;5099741;27;45267;-83
2022/10/24 01:52:27;;;;;;;;;2.75;1.00;;;;;17.28;100.00;99931.94;5110068;27;45369;-84
2022/10/24 01:54:53;;;;;;;;;0.50;0.50;;;;;17.27;100.00;99942.72;5093154;27;44877;-84
2022/10/24 01:57:18;;;;;;;;;2.50;0.00;;;;;17.24;100.00;99937.47;5112258;27;45447;-84
2022/10/24 01:59:47;;;;;;;;;1.50;1.50;;;;;17.18;100.00;99930.44;5093852;27;45430;-84
2022/10/24 02:02:18;;;;;;;;;2.00;1.00;;;;;17.16;100.00;99930.47;5097571;27;46907;-85
2022/10/24 02:05:00;;;;;;;;;1.00;1.00;;;;;17.16;100.00;99941.22;5092762;28;44939;-85
2022/10/24 02:07:29;;;;;;;;;3.25;1.00;;;;;17.12;100.00;99930.59;5093954;28;44955;-84
2022/10/24 02:10:09;;;;;;;;;1.00;1.00;;;;;17.11;100.00;99920.78;5089747;28;45411;-83
2022/10/24 02:12:41;;;;;;;;;0.75;0.75;;;;;17.05;100.00;99913.75;5088924;28;48506;-84
2022/10/24 02:15:27;;;;;;;;;3.00;0.00;;;;;17.10;100.00;99921.69;5089607;27;45363;-84
2022/10/24 02:17:53;;;;;;;;;3.00;1.25;;;;;17.06;100.00;99912.81;5089623;27;45428;-84
2022/10/24 02:20:32;;;;;;;;;2.00;2.00;;;;;17.05;100.00;99910.16;5090293;27;45312;-84
2022/10/24 02:23:24;;;;;;;;;0.25;0.25;;;;;17.02;100.00;99905.75;5089249;28;46290;-84
2022/10/24 02:25:52;;;;;;;;;1.00;1.00;;;;;16.98;100.00;99909.44;5088561;28;45398;-84
2022/10/24 02:28:23;;;;;;;;;3.25;1.00;;;;;16.97;100.00;99903.22;5089503;27;45498;-83
2022/10/24 02:31:21;;;;;;;;;2.00;0.00;;;;;16.98;100.00;99907.63;5088804;28;45242;-84
2022/10/24 02:33:50;;;;;;;;;1.50;0.50;;;;;16.93;100.00;99900.66;5084030;28;47670;-85
2022/10/24 02:36:20;;;;;;;;;1.25;1.25;;;;;16.86;100.00;99883.78;5104242;27;45464;-84
2022/10/24 02:38:49;;;;;;;;;0.75;0.50;;;;;16.89;100.00;99883.72;5087331;28;45571;-84
2022/10/24 02:41:21;;;;;;;;;3.75;1.75;;;;;16.90;100.00;99885.47;5089581;28;44928;-84
2022/10/24 02:43:49;;;;;;;;;1.00;1.00;;;;;16.91;100.00;99876.50;5106147;27;45224;-84
2022/10/24 02:46:16;;;;;;;;;2.00;1.00;;;;;16.85;100.00;99875.78;5088591;27;45443;-85
2022/10/24 02:48:48;;;;;;;;;1.25;1.25;;;;;16.90;100.00;99881.91;5090620;27;45482;-85
2022/10/24 02:51:16;;;;;;;;;1.25;1.00;;;;;16.84;100.00;99877.56;5090571;27;45369;-83
2022/10/24 02:53:45;;;;;;;;;2.00;2.00;;;;;16.86;100.00;99889.16;5089542;28;47026;-83
2022/10/24 02:59:33;;;;;;;;;3.75;2.25;;;;;16.83;100.00;99894.63;5089583;28;44770;-85
2022/10/24 03:01:58;;;;;;;;;4.00;2.75;;;;;16.85;100.00;99890.09;5088894;28;45698;-84
2022/10/24 03:04:24;;;;;;;;;3.75;2.00;;;;;16.85;100.00;99913.38;5087760;28;47432;-86
2022/10/24 03:06:49;;;;;;;;;6.25;2.50;;;;;16.82;100.00;99906.25;5090189;28;45427;-84
2022/10/24 03:09:15;;;;;;;;;3.25;1.75;;;;;16.81;100.00;99899.16;5090811;28;45347;-83
2022/10/24 03:12:34;;;;;;;;;5.25;2.00;;;;;16.80;100.00;99906.28;5078035;28;45371;-84
2022/10/24 03:14:59;;;;;;;;;0.50;0.50;;;;;16.77;100.00;99906.34;5075616;28;47223;-85
2022/10/24 03:17:25;;;;;;;;;2.00;1.00;;;;;16.72;100.00;99902.00;5094225;28;45371;-85
2022/10/24 03:19:50;;;;;;;;;1.75;1.75;;;;;16.74;100.00;99910.91;5092994;27;45427;-84
2022/10/24 03:22:18;;;;;;;;;2.50;1.25;;;;;16.73;100.00;99919.91;5092167;28;44856;-85
2022/10/24 03:24:47;;;;;;;;;3.00;2.00;;;;;16.68;100.00;99903.88;5076313;28;45357;-84
2022/10/24 03:27:13;;;;;;;;;5.25;2.00;;;;;16.73;100.00;99914.53;5092931;28;45538;-85
2022/10/24 03:29:39;;;;;;;;;3.25;1.25;;;;;16.70;100.00;99915.47;5094701;28;45454;-84
2022/10/24 03:32:05;;;;;;;;;2.00;1.75;;;;;16.71;100.00;99913.69;5075915;28;45706;-85
2022/10/24 03:34:31;;;;;;;;;1.00;1.00;;;;;16.68;100.00;99905.69;5092223;28;45486;-84
2022/10/24 03:36:57;;;;;;;;;1.00;1.00;;;;;16.67;100.00;99918.25;5090593;27;44716;-84
2022/10/24 03:39:22;;;;;;;;;4.00;2.50;;;;;16.65;100.00;99911.16;5104580;27;44780;-84
2022/10/24 03:41:48;;;;;;;;;2.50;2.00;;;;;16.65;100.00;99913.84;5096871;27;44918;-83
2022/10/24 03:44:13;;;;;;;;;7.00;3.50;;;;;16.64;100.00;99926.34;5095478;27;47371;-84
2022/10/24 03:46:39;;;;;;;;;2.25;1.25;;;;;16.59;100.00;99913.06;5115411;27;44756;-84
2022/10/24 03:49:05;;;;;;;;;1.50;0.25;;;;;16.42;100.00;99888.44;5094341;27;45397;-85
2022/10/24 03:51:30;;;;;;;;;2.50;2.00;;;;;16.55;100.00;99923.91;5113708;27;44819;-85
2022/10/24 03:53:56;;;;;;;;;1.00;1.00;;;;;16.56;100.00;99926.56;5113325;27;45399;-85
2022/10/24 03:56:21;;;;;;;;;4.50;2.75;;;;;16.54;100.00;99925.72;5113180;27;45400;-85
2022/10/24 03:58:47;;;;;;;;;1.00;1.00;;;;;16.54;100.00;99941.81;5113143;27;45396;-85
2022/10/24 04:01:16;;;;;;;;;2.50;1.25;;;;;16.45;100.00;99927.72;5114271;27;45766;-84
2022/10/24 04:03:45;;;;;;;;;3.00;3.00;;;;;16.51;100.00;99941.00;5096892;27;46850;-84
2022/10/24 04:06:12;;;;;;;;;2.50;2.50;;;;;16.53;100.00;99955.28;5115583;27;44688;-84
2022/10/24 04:08:38;;;;;;;;;5.00;3.00;;;;;16.53;100.00;99961.50;5116361;27;45403;-84
2022/10/24 04:11:06;;;;;;;;;3.00;1.00;;;;;16.52;100.00;99965.13;5115479;27;45393;-84
2022/10/24 04:13:32;;;;;;;;;5.00;3.00;;;;;16.52;100.00;99970.50;5096236;27;47760;-84
2022/10/24 04:15:58;;;;;;;;;4.75;1.00;;;;;16.53;100.00;99974.94;5093842;27;45434;-85
2022/10/24 04:18:24;;;;;;;;;3.50;2.00;;;;;16.52;100.00;99975.88;5094444;27;45268;-84
2022/10/24 04:21:05;;;;;;;;;4.00;2.75;;;;;16.52;100.00;99980.34;5090827;27;45357;-84
2022/10/24 04:23:39;;;;;;;;;3.50;3.25;;;;;16.49;100.00;99986.66;5091049;28;45435;-85
2022/10/24 04:26:11;;;;;;;;;5.25;3.50;;;;;16.48;100.00;99989.38;5089997;27;44777;-85
2022/10/24 04:28:36;;;;;;;;;3.00;2.75;;;;;16.44;100.00;99975.16;5092645;28;44761;-84
2022/10/24 04:31:02;;;;;;;;;4.75;2.50;;;;;16.47;100.00;99988.50;5091257;28;45416;-85
2022/10/24 04:33:27;;;;;;;;;3.25;1.25;;;;;16.45;100.00;100002.88;5074750;28;46785;-85
2022/10/24 04:35:53;;;;;;;;;3.25;1.50;;;;;16.44;100.00;99993.03;5075092;28;45585;-85
2022/10/24 04:38:18;;;;;;;;;4.75;3.00;;;;;16.45;100.00;100000.19;5092122;28;45174;-85
2022/10/24 04:40:46;;;;;;;;;2.00;2.00;;;;;16.42;100.00;99995.78;5093006;28;45439;-85
2022/10/24 04:43:11;;;;;;;;;2.75;2.75;;;;;16.36;100.00;100003.94;5092288;28;48036;-85
2022/10/24 04:45:36;;;;;;;;;3.75;2.50;;;;;16.35;100.00;100000.38;5090785;28;45326;-85
2022/10/24 04:48:03;;;;;;;;;1.50;1.50;;;;;16.38;100.00;100010.16;5092479;28;44871;-85
2022/10/24 04:50:29;;;;;;;;;3.75;3.25;;;;;16.31;100.00;100013.91;5075188;28;45272;-84
2022/10/24 04:52:54;;;;;;;;;3.75;1.25;;;;;16.27;100.00;100002.34;5089832;28;47290;-85
2022/10/24 04:58:43;;;;;;;;;2.75;1.50;;;;;16.32;100.00;100012.97;5091583;28;45457;-85
2022/10/24 05:01:09;;;;;;;;;3.25;2.25;;;;;16.30;100.00;100030.91;5090803;28;45408;-84
2022/10/24 05:03:34;;;;;;;;;3.00;2.25;;;;;16.27;100.00;100031.84;5102387;22;46619;-85
2022/10/24 05:06:06;;;;;;;;;3.00;2.25;;;;;16.26;100.00;100038.16;5091823;27;44821;-85
2022/10/24 05:08:32;;;;;;;;;4.25;0.75;;;;;16.23;100.00;100042.69;5092856;28;44740;-85
2022/10/24 05:10:59;;;;;;;;;4.00;4.00;;;;;16.20;100.00;100041.84;5091037;28;44812;-84
2022/10/24 05:13:25;;;;;;;;;3.00;2.50;;;;;16.16;100.00;100033.91;5089984;27;46245;-84
2022/10/24 05:15:50;;;;;;;;;1.00;1.00;;;;;16.21;100.00;100048.09;5092189;28;44740;-84
2022/10/24 05:18:16;;;;;;;;;3.75;2.75;;;;;16.13;100.00;100047.34;5075805;28;45415;-84
2022/10/24 05:20:41;;;;;;;;;6.25;3.25;;;;;16.12;100.00;100040.25;5091552;27;45337;-84
2022/10/24 05:23:08;;;;;;;;;5.50;2.00;;;;;16.11;100.00;100050.06;5091472;27;46704;-84
2022/10/24 05:25:34;;;;;;;;;3.00;3.00;;;;;16.14;100.00;100060.75;5092120;27;44899;-84
2022/10/24 05:28:07;;;;;;;;;1.75;1.00;;;;;16.11;100.00;100071.53;5092903;28;45460;-84
2022/10/24 05:30:32;;;;;;;;;4.00;4.00;;;;;16.09;100.00;100067.09;5091916;27;45382;-84
2022/10/24 05:32:58;;;;;;;;;1.00;1.00;;;;;16.11;100.00;100082.25;5073590;28;47235;-84
2022/10/24 05:35:24;;;;;;;;;2.75;2.75;;;;;16.09;100.00;100081.41;5092389;28;45350;-85
2022/10/24 05:37:49;;;;;;;;;5.00;2.00;;;;;16.11;100.00;100073.31;5092721;27;45381;-85
2022/10/24 05:40:15;;;;;;;;;5.00;2.00;;;;;16.14;100.00;100081.34;5056925;28;44844;-84
2022/10/24 05:42:41;;;;;;;;;5.00;4.50;;;;;16.03;100.00;100065.41;5041002;28;47878;-85
2022/10/24 05:45:08;;;;;;;;;7.75;3.25;;;;;16.15;100.00;100083.97;5072758;28;45518;-84
2022/10/24 05:47:39;;;;;;;;;4.25;2.00;;;;;16.15;100.00;100078.59;5054350;28;44891;-84
2022/10/24 05:50:09;;;;;;;;;3.75;3.75;;;;;16.15;100.00;100078.59;5072220;28;45492;-84
2022/10/24 05:52:38;;;;;;;;;3.00;2.25;;;;;16.09;100.00;100069.78;5072477;28;45679;-85
2022/10/24 05:55:10;;;;;;;;;3.50;2.50;;;;;16.14;100.00;100081.34;5072953;28;45415;-85
2022/10/24 05:57:37;;;;;;;;;3.25;1.00;;;;;16.18;100.00;100083.03;5073498;28;45369;-84
2022/10/24 06:00:08;;;;;;;;;5.00;3.25;;;;;16.15;100.00;100078.59;5071315;28;44771;-85
2022/10/24 06:02:33;;;;;;;;;4.00;1.25;;;;;16.14;100.00;100082.22;5053605;28;48102;-85
2022/10/24 06:04:59;;;;;;;;;4.75;4.50;;;;;16.19;100.00;100087.47;5071710;28;45440;-85
2022/10/24 06:07:27;;;;;;;;;4.00;2.50;;;;;16.14;100.00;100075.97;5055077;28;45456;-85
2022/10/24 06:09:53;;;;;;;;;6.00;6.00;;;;;16.13;100.00;100087.59;5052299;28;45267;-85
2022/10/24 06:12:27;;;;;;;;;3.75;2.00;;;;;16.15;100.00;100083.09;5052697;28;46877;-85
2022/10/24 06:14:58;;;;;;;;;2.00;2.00;;;;;16.17;100.00;100079.44;5075651;27;45517;-86
2022/10/24 06:20:46;;;;;;;;;2.50;2.00;;;;;16.13;100.00;100077.75;5074833;27;44806;-86
2022/10/24 06:23:12;;;;;;;;;4.75;4.00;;;;;16.13;100.00;100085.78;5058044;28;46933;-85
2022/10/24 06:25:40;;;;;;;;;1.25;1.25;;;;;16.13;100.00;100080.41;5076386;27;44728;-85
2022/10/24 06:28:10;;;;;;;;;2.75;2.75;;;;;16.08;100.00;100076.06;5058384;28;45230;-84
2022/10/24 06:30:39;;;;;;;;;3.75;2.00;;;;;16.04;100.00;100075.25;5054957;28;45486;-85
2022/10/24 06:33:04;;;;;;;;;4.50;4.50;;;;;16.07;100.00;100079.66;5075053;27;46533;-84
2022/10/24 06:35:30;;;;;;;;;1.25;1.25;;;;;16.05;100.00;100082.38;5065499;28;45537;-84
2022/10/24 06:37:56;;;;;;;;;2.00;2.00;;;;;16.08;100.00;100093.06;5095781;28;45266;-85
2022/10/24 06:40:26;;;;;;;;;6.25;3.00;;;;;16.05;100.00;100098.47;5097071;27;45363;-84
2022/10/24 06:43:12;;;;;;;;;9.00;5.00;;;;;16.07;100.00;100107.38;5062773;27;45288;-85
2022/10/24 06:45:44;;;;;;;;;4.25;2.00;;;;;16.06;100.00;100110.06;5078850;28;45487;-85
2022/10/24 06:48:10;;;;;;;;;5.50;3.50;;;;;16.02;100.00;100106.59;5081157;27;45797;-85
2022/10/24 06:50:39;;;;;;;;;3.00;2.00;;;;;16.04;100.00;100112.81;5081164;27;44941;-84
2022/10/24 06:53:07;;;;;;;;;2.50;2.50;;;;;16.06;100.00;100116.34;5079761;27;46872;-86
2022/10/24 06:55:34;;;;;;;;;2.00;2.00;;;;;16.08;100.00;100130.59;5079880;27;45404;-85
2022/10/24 06:57:59;;;;;;;;;2.00;2.00;;;;;16.06;100.00;100119.03;5097072;28;45121;-85
2022/10/24 07:00:29;;;;;;;;;2.75;2.75;;;;;16.04;100.00;100127.97;5078223;27;45271;-84
2022/10/24 07:03:02;;;;;;;;;2.50;2.50;;;;;16.10;100.00;100141.31;5079411;27;47143;-86
2022/10/24 07:05:39;;;;;;;;;2.25;2.25;;;;;16.11;100.00;100143.06;5096388;27;45482;-86
2022/10/24 07:09:16;;;;;;;;;6.00;3.25;;;;;16.19;100.00;100166.16;5082578;28;45394;-86
2022/10/24 07:11:49;;;;;;;;;6.00;3.00;;;;;16.31;100.00;100167.72;5079648;28;45325;-86
2022/10/24 07:14:16;;;;;;;;;5.50;5.25;;;;;16.42;100.00;100178.28;5080375;27;46824;-88
2022/10/24 07:16:42;;;;;;;;;5.00;2.25;;;;;16.47;100.00;100170.13;5080097;27;45311;-84
2022/10/24 07:19:33;;;;;;;;;3.00;2.75;;;;;16.60;100.00;100177.94;5062989;27;44763;-86
2022/10/24 07:22:46;;;;;;;;;5.00;3.00;;;;;16.68;100.00;100184.91;5082262;27;45063;-86
2022/10/24 07:25:14;;;;;;;;;2.25;2.25;;;;;16.76;100.00;100185.66;5036555;28;48145;-86
2022/10/24 07:27:56;;;;;;;;;3.00;3.00;;;;;16.71;100.00;100166.97;5019108;28;45889;-86
2022/10/24 07:33:07;;;;;;;;;3.50;2.00;;;;;16.83;100.00;100192.72;5047910;22;45319;-85
2022/10/24 07:35:39;;;;;;;;;4.00;4.00;;;;;16.62;100.00;100163.56;5016156;28;46837;-85
2022/10/24 07:38:13;;;;;;;;;3.00;3.00;;;;;16.57;100.00;100159.19;4999161;28;45686;-86
2022/10/24 07:40:43;;;;;;;;;3.00;3.00;;;;;16.79;100.00;100194.53;5017405;28;44982;-85
2022/10/24 07:43:09;;;;;;;;;4.00;4.00;;;;;16.78;100.00;100186.50;5017999;28;44800;-87
2022/10/24 07:45:39;;;;;;;;;5.25;2.75;;;;;16.75;100.00;100178.53;5018470;28;45373;-86
2022/10/24 07:48:18;;;;;;;;;6.50;3.25;;;;;16.53;100.00;100138.69;5017077;28;45303;-88
2022/10/24 07:50:53;;;;;;;;;5.50;2.00;;;;;16.84;100.00;100201.66;5016788;28;45443;-87
2022/10/24 07:53:27;;;;;;;;;3.75;1.75;;;;;16.75;100.00;100184.78;5016443;28;44917;-85
2022/10/24 07:55:53;;;;;;;;;5.25;2.75;;;;;16.92;100.00;100210.44;5016973;28;45111;-87
2022/10/24 07:58:19;;;;;;;;;2.00;2.00;;;;;16.87;100.00;100194.41;5032936;28;45335;-85
2022/10/24 08:01:23;;;;;;;;;6.00;3.25;;;;;17.01;100.00;100210.25;5034580;28;45451;-85
2022/10/24 08:11:39;;;;;;;;;6.50;3.50;;;;;17.16;100.00;100235.91;811331;22;46181;-85
2022/10/24 08:20:25;;;;;;;;;4.50;3.25;;;;;17.16;100.00;100200.97;4975815;28;45558;-85
2022/10/24 08:22:54;;;;;;;;;4.00;3.25;;;;;17.27;100.00;100207.00;4975926;28;45509;-86
2022/10/24 08:29:20;;;;;;;;;;;;;;;;;;;;;
2022/10/24 08:32:47;;;;;;;;;;;;;;;;;;;;;
2022/10/24 08:38:49;;;;;;;;;3.75;3.75;;;;;17.72;100.00;100251.72;4898687;28;44880;-85
2022/10/24 08:41:25;;;;;;;;;6.00;2.75;;;;;17.78;100.00;100251.56;4864821;29;45441;-87
2022/10/24 08:44:30;;;;;;;;;3.75;3.00;;;;;17.83;100.00;100243.38;4879901;29;44899;-85
2022/10/24 08:47:39;;;;;;;;;5.75;4.25;;;;;17.52;100.00;100209.13;4881428;29;44852;-87
2022/10/24 08:50:39;;;;;;;;;4.50;4.00;;;;;17.67;100.00;100226.72;4871946;29;44831;-87
2022/10/24 08:53:27;;;;;;;;;4.00;3.75;;;;;17.83;100.00;100249.66;4881127;29;45462;-86
2022/10/24 08:56:02;;;;;;;;;3.00;2.75;;;;;17.84;100.00;100245.19;4895294;28;45450;-86
2022/10/24 08:58:34;;;;;;;;;2.75;2.75;;;;;17.76;100.00;100222.00;4917812;28;45415;-87
2022/10/24 09:01:28;;;;;;;;;5.00;4.50;;;;;17.82;100.00;100222.78;4976497;28;45727;-85
2022/10/24 09:07:08;;;;;;;;;7.25;5.00;;;;;18.23;100.00;100266.66;5302162;22;45369;-85
2022/10/24 09:10:27;;;;;;;;;4.75;3.00;;;;;18.38;100.00;100271.66;5003373;28;44909;-86
2022/10/24 09:13:22;;;;;;;;;;;;;;;;;;;;;
2022/10/24 09:16:26;;;;;;;;;;;;;;;;;;;;;
2022/10/24 09:22:19;;;;;;;;;8.75;5.00;;;;;18.57;100.00;100272.06;4964308;28;44848;-86
2022/10/24 09:27:40;;;;;;;;;4.00;4.00;;;;;18.55;100.00;100230.81;3153436;26;45291;-85
2022/10/24 09:30:26;;;;;;;;;5.00;3.00;;;;;18.78;100.00;100273.28;5035078;28;45365;-86
2022/10/24 09:33:25;;;;;;;;;3.50;2.00;;;;;18.68;100.00;100256.47;5038813;28;45475;-87
2022/10/24 09:36:13;;;;;;;;;4.25;3.75;;;;;18.83;100.00;100298.34;4995605;28;45045;-86
2022/10/24 10:05:40;;;;;;;;;6.00;4.00;;;;;18.77;100.00;100314.63;3103685;26;45212;-86
2022/10/24 10:09:02;;;;;;;;;;;;;;;;;;;;;
2022/10/24 10:11:40;;;;;;;;;4.75;3.75;;;;;18.58;100.00;100274.72;5035642;28;74647;-85
2022/10/24 10:17:30;;;;;;;;;4.00;3.25;;;;;18.53;100.00;100300.88;5017713;28;44956;-84
2022/10/24 10:20:02;;;;;;;;;8.33;6.33;;;;;18.57;100.00;100307.06;5004842;28;45766;-85
2022/10/24 10:23:07;;;;;;;;;4.00;4.00;;;;;18.73;100.00;100319.22;5028561;28;46685;-85
2022/10/24 10:25:33;;;;;;;;;8.75;7.00;;;;;18.68;100.00;100304.09;4957902;28;45508;-86
2022/10/24 10:28:01;;;;;;;;;4.00;4.00;;;;;18.64;100.00;100302.41;4940948;28;44899;-86
2022/10/24 10:30:46;;;;;;;;;5.33;5.33;;;;;18.74;100.00;100317.41;4942354;28;45055;-85
2022/10/24 10:33:40;;;;;;;;;3.75;3.00;;;;;18.72;100.00;100317.47;4957370;28;46957;-85
2022/10/24 10:36:36;;;;;;;;;3.75;3.00;;;;;18.82;100.00;100326.19;4958052;28;45311;-84
2022/10/24 10:39:27;;;;;;;;;4.67;4.00;;;;;18.96;100.00;100342.00;4941541;28;45419;-84
2022/10/24 10:42:37;;;;;;;;;7.00;5.67;;;;;19.07;100.00;100333.63;4957554;28;45418;-85
2022/10/24 10:45:22;;;;;;;;;5.00;4.33;;;;;19.17;100.00;100335.16;4847855;29;45761;-85
2022/10/24 10:48:23;;;;;;;;;8.00;4.00;;;;;18.93;100.00;100302.53;4847922;29;45920;-87
2022/10/24 10:51:23;;;;;;;;;;;;;;;;;;;;;
2022/10/24 10:54:39;;;;;;;;;;;;;;;;;;;;;
2022/10/24 10:57:40;;;;;;;;;5.75;5.00;;;;;19.16;100.00;100357.63;4843589;29;74452;-84
2022/10/24 11:01:07;;;;;;;;;;;;;;;;;;;;;
2022/10/24 11:10:44;;;;;;;;;3.00;3.00;;;;;19.42;100.00;100283.22;5349357;23;45083;-85
2022/10/24 11:13:36;;;;;;;;;2.00;2.00;;;;;19.68;100.00;100347.16;4950105;28;45477;-86
2022/10/24 11:16:42;;;;;;;;;3.75;3.00;;;;;19.53;100.00;100340.38;4957300;28;45341;-88
2022/10/24 11:19:46;;;;;;;;;3.00;2.00;;;;;19.53;100.00;100345.78;4956879;28;45389;-83
2022/10/24 11:22:44;;;;;;;;;2.75;2.75;;;;;19.57;100.00;100340.28;4955483;28;47245;-85
2022/10/24 11:25:38;;;;;;;;;6.25;5.00;;;;;19.67;100.00;100318.41;4949272;28;45566;-83
2022/10/24 11:28:36;;;;;;;;;4.50;4.00;;;;;19.64;100.00;100308.59;4954324;28;45620;-85
2022/10/24 11:31:38;;;;;;;;;6.00;3.50;;;;;19.76;100.00;100337.06;4956653;28;45440;-83
2022/10/24 11:37:42;;;;;;;;;2.00;2.00;;;;;19.58;100.00;100311.47;4954484;28;44813;-85
2022/10/24 11:40:22;;;;;;;;;2.75;2.75;;;;;19.66;100.00;100328.31;4957928;28;45401;-87
2022/10/24 11:43:31;;;;;;;;;4.00;4.00;;;;;19.84;100.00;100336.84;4944277;28;44915;-86
2022/10/24 11:46:06;;;;;;;;;5.75;2.50;;;;;19.90;100.00;100339.34;4954175;28;45667;-86
2022/10/24 11:52:31;;;;;;;;;4.50;3.00;;;;;20.53;100.00;100338.19;4964243;28;45446;-82
2022/10/24 11:55:36;;;;;;;;;4.00;3.00;;;;;20.83;100.00;100324.59;4938483;28;45548;-84
2022/10/24 11:58:20;;;;;;;;;6.00;3.50;;;;;21.06;100.00;100323.78;4954472;28;48021;-85
2022/10/24 12:52:28;;;;;;;;;2.50;2.25;;;;;19.77;100.00;100307.34;525510;23;45145;31
2022/10/24 12:55:55;;;;;;;;;;;;;;;;;;;;;
2022/10/24 13:25:34;;;;;;;;;;;;;;;;;;;;;
2022/10/24 13:28:32;;;;;;;;;2.00;2.00;;;;;19.82;100.00;100300.91;4944017;28;68092;-86
2022/10/24 13:31:07;;;;;;;;;3.50;3.25;;;;;19.83;100.00;100303.53;4937115;28;45362;-86
2022/10/24 13:33:41;;;;;;;;;2.75;1.75;;;;;19.73;100.00;100267.91;4919199;28;46678;-86
2022/10/24 13:39:10;;;;;;;;;2.00;1.00;;;;;20.18;100.00;100307.84;5067353;23;45855;-86
2022/10/24 13:41:49;;;;;;;;;3.00;1.00;;;;;20.15;100.00;100282.75;4941804;28;45541;-87
2022/10/24 13:44:48;;;;;;;;;0.25;0.25;;;;;20.25;100.00;100295.00;5013270;23;46822;-85
2022/10/24 13:47:35;;;;;;;;;1.00;1.00;;;;;20.18;100.00;100299.72;4921720;28;45520;-86
2022/10/24 13:50:45;;;;;;;;;2.00;1.50;;;;;20.14;100.00;100297.19;4937057;28;45490;-88
2022/10/24 13:53:24;;;;;;;;;2.00;2.00;;;;;19.99;100.00;100267.03;4937572;28;45419;-85
2022/10/24 13:55:54;;;;;;;;;1.75;1.00;;;;;20.11;100.00;100299.97;4937676;28;45002;-87
2022/10/24 13:58:25;;;;;;;;;0.50;0.50;;;;;20.09;100.00;100305.41;4957353;28;44734;-87
2022/10/24 14:13:14;;;;;;;;;3.50;3.50;;;;;20.54;100.00;100279.63;4681047;23;46758;-83
2022/10/24 14:15:49;;;;;;;;;1.25;1.00;;;;;20.60;100.00;100292.09;4878617;29;44990;-85
2022/10/24 14:18:51;;;;;;;;;3.75;2.00;;;;;20.63;100.00;100286.59;4886146;29;45292;-84
2022/10/24 14:21:43;;;;;;;;;2.50;2.50;;;;;20.38;100.00;100246.88;4899065;29;45459;-84
2022/10/24 14:24:18;;;;;;;;;1.00;1.00;;;;;20.46;100.00;100266.41;4880882;29;44845;-85
2022/10/24 14:26:46;;;;;;;;;3.25;2.00;;;;;20.71;100.00;100303.41;4866130;29;45483;-86
2022/10/24 14:29:31;;;;;;;;;2.00;2.00;;;;;20.78;100.00;100305.84;4880544;29;45435;-85
2022/10/24 14:32:07;;;;;;;;;23.67;23.67;;;;;20.81;100.00;100293.16;4883939;29;45408;-85
2022/10/24 14:42:19;;;;;;;;;1.75;1.00;;;;;20.58;100.00;100306.53;1354661;26;45955;-85
2022/10/24 14:44:55;;;;;;;;;2.00;2.00;;;;;20.54;100.00;100318.34;4971753;28;44734;-84
2022/10/24 14:47:43;;;;;;;;;3.25;2.25;;;;;20.38;100.00;100300.91;4940751;28;44981;-85
2022/10/24 14:50:46;;;;;;;;;2.00;2.00;;;;;20.42;100.00;100323.25;4970554;28;45210;-84
2022/10/24 14:53:26;;;;;;;;;2.00;2.00;;;;;20.31;100.00;100311.00;4980077;28;44825;-85
2022/10/24 14:56:16;;;;;;;;;0.75;0.75;;;;;20.35;100.00;100317.19;4995523;28;44909;-86
2022/10/24 14:58:42;;;;;;;;;2.00;1.00;;;;;20.21;100.00;100325.75;4968741;28;45352;-84
2022/10/24 15:01:18;;;;;;;;;1.50;1.50;;;;;20.09;100.00;100327.00;4992152;28;45392;-85
2022/10/24 15:04:02;;;;;;;;;1.50;1.25;;;;;20.07;100.00;100328.88;4982299;28;44772;-85
2022/10/24 15:06:43;;;;;;;;;1.00;1.00;;;;;19.99;100.00;100325.53;4969747;28;44826;-85
2022/10/24 15:09:09;;;;;;;;;5.75;2.00;;;;;19.84;100.00;100320.66;4960144;28;44918;-84
2022/10/24 15:11:44;;;;;;;;;8.75;7.00;;;;;19.84;100.00;100328.75;4976877;28;45420;-85
2022/10/24 15:14:48;;;;;;;;;3.00;3.00;;;;;19.75;100.00;100327.19;4959327;28;45803;-85
2022/10/24 15:17:18;;;;;;;;;2.75;2.75;;;;;19.67;100.00;100319.28;4983333;28;45215;-85
2022/10/24 15:19:49;;;;;;;;;3.00;2.00;;;;;19.49;100.00;100323.44;4993247;28;45361;-85
2022/10/24 15:22:28;;;;;;;;;5.25;2.00;;;;;19.51;100.00;100342.25;4975737;28;46890;-85
2022/10/24 15:28:52;;;;;;;;;1.00;1.00;;;;;19.39;100.00;100339.00;4976684;28;44767;-85
2022/10/24 15:31:22;;;;;;;;;3.00;1.75;;;;;19.33;100.00;100332.88;4976079;28;45388;-84